NCAR-RAP Real-Time Weather Data

Output produced by METARs form (10 April 2020  06:48 UTC)
found at http://weather.rap.ucar.edu/surface/
 
KRDU 100551Z 34009KT 290V020 10SM FEW250 14/M04 A2965 RMK AO2 SLP037 T01441039 10228 20144 51031